Explorer Of The Seas — C6SE4 — position and weather

sailwx.info

Track history (hours):
 
Tides and Currents Weather Stations Pressure Air Temp Water Temp Dewpoint Dewpoint Depression Visibility Wind Speed Wind Dir Waves Ship Positions

Explorer Of The Seas

Operator: Royal Caribbean Cruises Ltd

Last reported at 2017-Aug-16 09:00 UTC. Time now 2017-Aug-16 19:19 UTC.
Position N 53°36' W 133°30'.

Length 311 m; draft 9.2 m.

Type: Passenger vessel. MMSI: 311316000.

Wind from 240 at 26 knots

Barometer 1008.3 mb
Air temperature 12.0 ° C
Water temperature 13.8 ° C

Date/timePositionNaut miles runAvg speedWind from/ knotsBaromVisibWave heightAir tempDewpointWater temp
2017-Aug-16 09:00N 53°36' W 133°30'10517.5 240 / 261008.3 12.0 13.8
2017-Aug-16 03:00N 55°18' W 134°12'14215.8 210 / 251003.0 2.2 12.012.0
2017-Aug-15 18:00N 57°36' W 133°12'126 6.0 090 / 101007.910.8 10.0 7.9 6.0
2017-Aug-14 21:00N 59°24' W 135°18'249 6.9 200 / 211007.6 14.0 11.0
2017-Aug-13 09:00N 55°18' W 134°12'6822.7 210 / 20998.5 12.1 13.4
2017-Aug-13 06:00N 54°12' W 133°42'41420.2 240 / 25998.010.8 12.010.115.0
2017-Aug-12 09:31N 49°00' W 126°24'020.2
2017-Aug-12 09:30N 49°00' W 126°23'1121.2
2017-Aug-12 09:00N 48°54' W 126°10'3587.1
2017-Aug-12 09:00N 48°54' W 126°06'917.9 290 / 121013.5 10.5 13.7
2017-Aug-12 08:30N 48°48' W 125°57'1020.9
2017-Aug-12 08:00N 48°42' W 125°44'1121.2
2017-Aug-12 07:30N 48°36' W 125°30'1121.1
2017-Aug-12 06:58N 48°32' W 125°14'1022.2
2017-Aug-12 06:30N 48°31' W 124°59'1122.2
2017-Aug-12 06:00N 48°30' W 124°42'4235.8
2017-Aug-12 06:00N 48°30' W 124°48'1530.2 280 / 121013.2 0.0 10.010.011.0
2017-Aug-12 05:30N 48°26' W 124°27'1121.2
2017-Aug-12 05:00N 48°22' W 124°12'1020.5
2017-Aug-12 04:30N 48°18' W 123°58'1020.8
2017-Aug-12 04:00N 48°17' W 123°42'918.8
2017-Aug-12 03:30N 48°14' W 123°29'4 7.2
2017-Aug-12 03:00N 48°12' W 123°24'3350.0 260 / 301010.9 5.4 10.010.010.5
2017-Aug-12 02:59N 48°09' W 123°22'714.3
2017-Aug-12 02:30N 48°11' W 123°12'917.7
2017-Aug-12 02:00N 48°12' W 122°59'918.3
2017-Aug-12 01:30N 48°11' W 122°46'815.7
2017-Aug-12 01:00N 48°04' W 122°38'917.8
2017-Aug-12 00:30N 47°57' W 122°32'1019.6
2017-Aug-12 00:01N 47°48' W 122°26'918.4
2017-Aug-11 23:30N 47°39' W 122°27'3 5.5
2017-Aug-11 23:00N 47°38' W 122°23'0 0.1
2017-Aug-11 22:28N 47°38' W 122°23'0 0.0
2017-Aug-11 21:58N 47°38' W 122°23'0 0.0
2017-Aug-11 21:30N 47°38' W 122°23'0 0.0
2017-Aug-11 20:58N 47°38' W 122°23'0 0.0
2017-Aug-11 20:28N 47°38' W 122°23'0 0.0
2017-Aug-11 19:58N 47°38' W 122°23'0 0.0
2017-Aug-11 19:28N 47°38' W 122°23'0 0.0
2017-Aug-11 18:58N 47°38' W 122°23'0 0.0
2017-Aug-11 18:28N 47°38' W 122°23'0 0.0
2017-Aug-11 17:58N 47°38' W 122°23'0 0.0
2017-Aug-11 17:28N 47°38' W 122°23'0 0.0
2017-Aug-11 16:58N 47°38' W 122°23'0 0.0
2017-Aug-11 16:28N 47°38' W 122°23'0 0.0
2017-Aug-11 15:58N 47°38' W 122°23'0 0.0
2017-Aug-11 15:28N 47°38' W 122°23'0 0.0
2017-Aug-11 14:58N 47°38' W 122°23'0 0.0
2017-Aug-11 14:28N 47°38' W 122°23'0 0.0
2017-Aug-11 13:28N 47°38' W 122°23'0 0.0
2017-Aug-11 12:58N 47°38' W 122°23'0 0.1
2017-Aug-11 12:30N 47°38' W 122°23'2 4.3
2017-Aug-11 12:00N 47°38' W 122°26'510.1
2017-Aug-11 11:30N 47°42' W 122°28'612.2
2017-Aug-11 11:00N 47°49' W 122°28'612.6
2017-Aug-11 10:30N 47°55' W 122°30'612.9
2017-Aug-11 10:00N 47°59' W 122°37'915.1
2017-Aug-11 09:25N 48°08' W 122°42'615.5
2017-Aug-11 09:01N 48°11' W 122°50'7434.0
2017-Aug-11 09:00N 48°06' W 122°42'1429.5 270 / 91012.6 0.1 9.6 10.8
2017-Aug-11 08:31N 48°12' W 123°02'815.3
2017-Aug-11 08:01N 48°11' W 123°13'714.0
2017-Aug-11 07:30N 48°10' W 123°23'5 9.2
2017-Aug-11 06:57N 48°12' W 123°30'4 9.8
2017-Aug-11 06:31N 48°13' W 123°37'5 9.5
2017-Aug-11 06:00N 48°13' W 123°44'2114.5
2017-Aug-11 06:00N 48°12' W 123°42'612.2 280 / 181012.0 10.010.010.0
2017-Aug-11 05:30N 48°13' W 123°51'4 8.0
2017-Aug-11 05:00N 48°15' W 123°56'3 5.6
2017-Aug-11 04:27N 48°17' W 123°53'5 8.1
2017-Aug-11 03:53N 48°16' W 123°46'3 8.2
2017-Aug-11 03:30N 48°16' W 123°42'916.8
2017-Aug-11 03:00N 48°12' W 123°30'419.0 280 / 251011.2 10.010.010.0
2017-Aug-11 02:47N 48°16' W 123°32'2 7.2
2017-Aug-11 02:27N 48°17' W 123°29'4 7.9
2017-Aug-11 01:59N 48°20' W 123°27'4 7.6
2017-Aug-11 01:30N 48°23' W 123°24'2 3.5
2017-Aug-11 01:00N 48°25' W 123°24'0 0.0
2017-Aug-11 00:30N 48°25' W 123°24'0 0.0
2017-Aug-11 00:00N 48°25' W 123°24'0 0.0
2017-Aug-10 23:27N 48°25' W 123°24'0 0.0
2017-Aug-10 22:57N 48°25' W 123°24'0 0.0
2017-Aug-10 22:30N 48°25' W 123°24'0 0.0
2017-Aug-10 22:00N 48°25' W 123°24'0 0.0
2017-Aug-10 21:30N 48°25' W 123°24'0 0.0
2017-Aug-10 21:00N 48°25' W 123°24'0 0.0
2017-Aug-10 20:21N 48°25' W 123°24'0 0.0
2017-Aug-10 19:57N 48°25' W 123°24'0 0.0
2017-Aug-10 19:30N 48°25' W 123°24'0 0.0
2017-Aug-10 18:51N 48°25' W 123°24'0 0.0
2017-Aug-10 18:30N 48°25' W 123°24'0 0.0
2017-Aug-10 17:57N 48°25' W 123°24'0 0.0
2017-Aug-10 17:27N 48°25' W 123°24'0 0.0
2017-Aug-10 17:00N 48°25' W 123°24'0 0.0
2017-Aug-10 16:30N 48°25' W 123°24'0 0.0
2017-Aug-10 16:00N 48°25' W 123°24'0 0.0
2017-Aug-10 15:30N 48°25' W 123°24'0 0.9
2017-Aug-10 15:00N 48°25' W 123°24'611.1
2017-Aug-10 14:30N 48°19' W 123°25'5 9.2
2017-Aug-10 14:00N 48°15' W 123°27'612.9
2017-Aug-10 13:30N 48°14' W 123°36'713.8
2017-Aug-10 13:00N 48°13' W 123°47'713.9
2017-Aug-10 12:30N 48°14' W 123°57'714.5
2017-Aug-10 12:00N 48°17' W 124°07'5437.6
2017-Aug-10 12:00N 48°12' W 124°06'1123.0 320 / 131014.2 0.0 9.8 11.0
2017-Aug-10 11:30N 48°20' W 124°17'714.5
2017-Aug-10 11:00N 48°23' W 124°27'715.0
2017-Aug-10 10:31N 48°27' W 124°37'815.6
2017-Aug-10 10:01N 48°29' W 124°49'816.8
2017-Aug-10 09:30N 48°29' W 125°01'816.3
2017-Aug-10 09:00N 48°29' W 125°13'815.5
2017-Aug-10 08:30N 48°32' W 125°24'816.0
2017-Aug-10 08:00N 48°37' W 125°34'815.9
2017-Aug-10 07:31N 48°41' W 125°44'815.9
2017-Aug-10 07:00N 48°46' W 125°53'815.9
2017-Aug-10 06:31N 48°51' W 126°03'816.2
2017-Aug-10 06:01N 48°55' W 126°13'293.5
2017-Aug-10 06:00N 48°54' W 126°12'919.6 290 / 101013.9 0.0 12.010.114.0
2017-Aug-10 05:31N 49°00' W 126°23'816.3
2017-Aug-10 05:00N 49°05' W 126°33'816.0
2017-Aug-10 04:30N 49°10' W 126°43'815.6
2017-Aug-10 04:00N 49°15' W 126°52'816.1
2017-Aug-10 03:30N 49°20' W 127°02'5 9.9
2017-Aug-10 03:00N 49°24' W 127°06'1421.9 320 / 201014.2 0.0 12.010.112.7
2017-Aug-10 02:22N 49°31' W 127°24'4616.5
2017-Aug-09 23:35N 50°01' W 128°19'216.8
2017-Aug-09 23:27N 50°02' W 128°21'818.7
2017-Aug-09 23:00N 50°08' W 128°31'1019.7
2017-Aug-09 22:30N 50°15' W 128°42'1019.6
2017-Aug-09 22:00N 50°21' W 128°53'1119.4
2017-Aug-09 21:26N 50°29' W 129°06'819.2
2017-Aug-09 21:00N 50°34' W 129°15'5319.7
2017-Aug-09 21:00N 50°30' W 129°12'1429.5 340 / 181017.2 14.0 12.0
2017-Aug-09 20:30N 50°41' W 129°27'1019.6
2017-Aug-09 20:00N 50°48' W 129°38'1019.1
2017-Aug-09 19:30N 50°54' W 129°49'2319.3
2017-Aug-09 18:19N 51°10' W 130°15'413.2
2017-Aug-09 18:00N 51°06' W 130°12'12150.2 320 / 201017.010.8 13.0 9.115.0
2017-Aug-09 17:55N 51°15' W 130°25'11218.9
2017-Aug-09 12:00N 52°36' W 132°30'30116.7 320 / 201017.8 12.0 13.4
2017-Aug-08 18:00N 57°36' W 133°12'72 8.0 140 / 51022.610.8 11.0 9.0 5.5
2017-Aug-08 09:00N 58°24' W 134°54'20 0.7 180 / 91022.710.8 13.3 13.8
2017-Aug-07 04:00N 58°12' W 134°24'168 8.8 140 / 61015.010.8 18.012.7 9.0
2017-Aug-06 09:00N 55°24' W 134°12'   300 / 201014.7 11.9 12.3
Track history (hours):
 
Tides and Currents Weather Stations Pressure Air Temp Water Temp Dewpoint Dewpoint Depression Visibility Wind Speed Wind Dir Waves Ship Positions

Explorer Of The Seas

Operator: Royal Caribbean Cruises Ltd

Last reported at 2017-Aug-16 09:00 UTC. Time now 2017-Aug-16 19:19 UTC.
Position N 53°36' W 133°30'.

Length 311 m; draft 9.2 m.

Type: Passenger vessel. MMSI: 311316000.

Wind from 240 at 26 knots

Barometer 1008.3 mb
Air temperature 12.0 ° C
Water temperature 13.8 ° C

Date/timePositionNaut miles runAvg speedWind from/ knotsBaromVisibWave heightAir tempDewpointWater temp
2017-Aug-16 09:00N 53°36' W 133°30'10517.5 240 / 261008.3 12.0 13.8
2017-Aug-16 03:00N 55°18' W 134°12'14215.8 210 / 251003.0 2.2 12.012.0
2017-Aug-15 18:00N 57°36' W 133°12'126 6.0 090 / 101007.910.8 10.0 7.9 6.0
2017-Aug-14 21:00N 59°24' W 135°18'249 6.9 200 / 211007.6 14.0 11.0
2017-Aug-13 09:00N 55°18' W 134°12'6822.7 210 / 20998.5 12.1 13.4
2017-Aug-13 06:00N 54°12' W 133°42'41420.2 240 / 25998.010.8 12.010.115.0
2017-Aug-12 09:31N 49°00' W 126°24'020.2
2017-Aug-12 09:30N 49°00' W 126°23'1121.2
2017-Aug-12 09:00N 48°54' W 126°10'3587.1
2017-Aug-12 09:00N 48°54' W 126°06'917.9 290 / 121013.5 10.5 13.7
2017-Aug-12 08:30N 48°48' W 125°57'1020.9
2017-Aug-12 08:00N 48°42' W 125°44'1121.2
2017-Aug-12 07:30N 48°36' W 125°30'1121.1
2017-Aug-12 06:58N 48°32' W 125°14'1022.2
2017-Aug-12 06:30N 48°31' W 124°59'1122.2
2017-Aug-12 06:00N 48°30' W 124°42'4235.8
2017-Aug-12 06:00N 48°30' W 124°48'1530.2 280 / 121013.2 0.0 10.010.011.0
2017-Aug-12 05:30N 48°26' W 124°27'1121.2
2017-Aug-12 05:00N 48°22' W 124°12'1020.5
2017-Aug-12 04:30N 48°18' W 123°58'1020.8
2017-Aug-12 04:00N 48°17' W 123°42'918.8
2017-Aug-12 03:30N 48°14' W 123°29'4 7.2
2017-Aug-12 03:00N 48°12' W 123°24'3350.0 260 / 301010.9 5.4 10.010.010.5
2017-Aug-12 02:59N 48°09' W 123°22'714.3
2017-Aug-12 02:30N 48°11' W 123°12'917.7
2017-Aug-12 02:00N 48°12' W 122°59'918.3
2017-Aug-12 01:30N 48°11' W 122°46'815.7
2017-Aug-12 01:00N 48°04' W 122°38'917.8
2017-Aug-12 00:30N 47°57' W 122°32'1019.6
2017-Aug-12 00:01N 47°48' W 122°26'918.4
2017-Aug-11 23:30N 47°39' W 122°27'3 5.5
2017-Aug-11 23:00N 47°38' W 122°23'0 0.1
2017-Aug-11 22:28N 47°38' W 122°23'0 0.0
2017-Aug-11 21:58N 47°38' W 122°23'0 0.0
2017-Aug-11 21:30N 47°38' W 122°23'0 0.0
2017-Aug-11 20:58N 47°38' W 122°23'0 0.0
2017-Aug-11 20:28N 47°38' W 122°23'0 0.0
2017-Aug-11 19:58N 47°38' W 122°23'0 0.0
2017-Aug-11 19:28N 47°38' W 122°23'0 0.0
2017-Aug-11 18:58N 47°38' W 122°23'0 0.0
2017-Aug-11 18:28N 47°38' W 122°23'0 0.0
2017-Aug-11 17:58N 47°38' W 122°23'0 0.0
2017-Aug-11 17:28N 47°38' W 122°23'0 0.0
2017-Aug-11 16:58N 47°38' W 122°23'0 0.0
2017-Aug-11 16:28N 47°38' W 122°23'0 0.0
2017-Aug-11 15:58N 47°38' W 122°23'0 0.0
2017-Aug-11 15:28N 47°38' W 122°23'0 0.0
2017-Aug-11 14:58N 47°38' W 122°23'0 0.0
2017-Aug-11 14:28N 47°38' W 122°23'0 0.0
2017-Aug-11 13:28N 47°38' W 122°23'0 0.0
2017-Aug-11 12:58N 47°38' W 122°23'0 0.1
2017-Aug-11 12:30N 47°38' W 122°23'2 4.3
2017-Aug-11 12:00N 47°38' W 122°26'510.1
2017-Aug-11 11:30N 47°42' W 122°28'612.2
2017-Aug-11 11:00N 47°49' W 122°28'612.6
2017-Aug-11 10:30N 47°55' W 122°30'612.9
2017-Aug-11 10:00N 47°59' W 122°37'915.1
2017-Aug-11 09:25N 48°08' W 122°42'615.5
2017-Aug-11 09:01N 48°11' W 122°50'7434.0
2017-Aug-11 09:00N 48°06' W 122°42'1429.5 270 / 91012.6 0.1 9.6 10.8
2017-Aug-11 08:31N 48°12' W 123°02'815.3
2017-Aug-11 08:01N 48°11' W 123°13'714.0
2017-Aug-11 07:30N 48°10' W 123°23'5 9.2
2017-Aug-11 06:57N 48°12' W 123°30'4 9.8
2017-Aug-11 06:31N 48°13' W 123°37'5 9.5
2017-Aug-11 06:00N 48°13' W 123°44'2114.5
2017-Aug-11 06:00N 48°12' W 123°42'612.2 280 / 181012.0 10.010.010.0
2017-Aug-11 05:30N 48°13' W 123°51'4 8.0
2017-Aug-11 05:00N 48°15' W 123°56'3 5.6
2017-Aug-11 04:27N 48°17' W 123°53'5 8.1
2017-Aug-11 03:53N 48°16' W 123°46'3 8.2
2017-Aug-11 03:30N 48°16' W 123°42'916.8
2017-Aug-11 03:00N 48°12' W 123°30'419.0 280 / 251011.2 10.010.010.0
2017-Aug-11 02:47N 48°16' W 123°32'2 7.2
2017-Aug-11 02:27N 48°17' W 123°29'4 7.9
2017-Aug-11 01:59N 48°20' W 123°27'4 7.6
2017-Aug-11 01:30N 48°23' W 123°24'2 3.5
2017-Aug-11 01:00N 48°25' W 123°24'0 0.0
2017-Aug-11 00:30N 48°25' W 123°24'0 0.0
2017-Aug-11 00:00N 48°25' W 123°24'0 0.0
2017-Aug-10 23:27N 48°25' W 123°24'0 0.0
2017-Aug-10 22:57N 48°25' W 123°24'0 0.0
2017-Aug-10 22:30N 48°25' W 123°24'0 0.0
2017-Aug-10 22:00N 48°25' W 123°24'0 0.0
2017-Aug-10 21:30N 48°25' W 123°24'0 0.0
2017-Aug-10 21:00N 48°25' W 123°24'0 0.0
2017-Aug-10 20:21N 48°25' W 123°24'0 0.0
2017-Aug-10 19:57N 48°25' W 123°24'0 0.0
2017-Aug-10 19:30N 48°25' W 123°24'0 0.0
2017-Aug-10 18:51N 48°25' W 123°24'0 0.0
2017-Aug-10 18:30N 48°25' W 123°24'0 0.0
2017-Aug-10 17:57N 48°25' W 123°24'0 0.0
2017-Aug-10 17:27N 48°25' W 123°24'0 0.0
2017-Aug-10 17:00N 48°25' W 123°24'0 0.0
2017-Aug-10 16:30N 48°25' W 123°24'0 0.0
2017-Aug-10 16:00N 48°25' W 123°24'0 0.0
2017-Aug-10 15:30N 48°25' W 123°24'0 0.9
2017-Aug-10 15:00N 48°25' W 123°24'611.1
2017-Aug-10 14:30N 48°19' W 123°25'5 9.2
2017-Aug-10 14:00N 48°15' W 123°27'612.9
2017-Aug-10 13:30N 48°14' W 123°36'713.8
2017-Aug-10 13:00N 48°13' W 123°47'713.9
2017-Aug-10 12:30N 48°14' W 123°57'714.5
2017-Aug-10 12:00N 48°17' W 124°07'5437.6
2017-Aug-10 12:00N 48°12' W 124°06'1123.0 320 / 131014.2 0.0 9.8 11.0
2017-Aug-10 11:30N 48°20' W 124°17'714.5
2017-Aug-10 11:00N 48°23' W 124°27'715.0
2017-Aug-10 10:31N 48°27' W 124°37'815.6
2017-Aug-10 10:01N 48°29' W 124°49'816.8
2017-Aug-10 09:30N 48°29' W 125°01'816.3
2017-Aug-10 09:00N 48°29' W 125°13'815.5
2017-Aug-10 08:30N 48°32' W 125°24'816.0
2017-Aug-10 08:00N 48°37' W 125°34'815.9
2017-Aug-10 07:31N 48°41' W 125°44'815.9
2017-Aug-10 07:00N 48°46' W 125°53'815.9
2017-Aug-10 06:31N 48°51' W 126°03'816.2
2017-Aug-10 06:01N 48°55' W 126°13'293.5
2017-Aug-10 06:00N 48°54' W 126°12'919.6 290 / 101013.9 0.0 12.010.114.0
2017-Aug-10 05:31N 49°00' W 126°23'816.3
2017-Aug-10 05:00N 49°05' W 126°33'816.0
2017-Aug-10 04:30N 49°10' W 126°43'815.6
2017-Aug-10 04:00N 49°15' W 126°52'816.1
2017-Aug-10 03:30N 49°20' W 127°02'5 9.9
2017-Aug-10 03:00N 49°24' W 127°06'1421.9 320 / 201014.2 0.0 12.010.112.7
2017-Aug-10 02:22N 49°31' W 127°24'4616.5
2017-Aug-09 23:35N 50°01' W 128°19'216.8
2017-Aug-09 23:27N 50°02' W 128°21'818.7
2017-Aug-09 23:00N 50°08' W 128°31'1019.7
2017-Aug-09 22:30N 50°15' W 128°42'1019.6
2017-Aug-09 22:00N 50°21' W 128°53'1119.4
2017-Aug-09 21:26N 50°29' W 129°06'819.2
2017-Aug-09 21:00N 50°34' W 129°15'5319.7
2017-Aug-09 21:00N 50°30' W 129°12'1429.5 340 / 181017.2 14.0 12.0
2017-Aug-09 20:30N 50°41' W 129°27'1019.6
2017-Aug-09 20:00N 50°48' W 129°38'1019.1
2017-Aug-09 19:30N 50°54' W 129°49'2319.3
2017-Aug-09 18:19N 51°10' W 130°15'413.2
2017-Aug-09 18:00N 51°06' W 130°12'12150.2 320 / 201017.010.8 13.0 9.115.0
2017-Aug-09 17:55N 51°15' W 130°25'11218.9
2017-Aug-09 12:00N 52°36' W 132°30'30116.7 320 / 201017.8 12.0 13.4
2017-Aug-08 18:00N 57°36' W 133°12'72 8.0 140 / 51022.610.8 11.0 9.0 5.5
2017-Aug-08 09:00N 58°24' W 134°54'20 0.7 180 / 91022.710.8 13.3 13.8
2017-Aug-07 04:00N 58°12' W 134°24'168 8.8 140 / 61015.010.8 18.012.7 9.0
2017-Aug-06 09:00N 55°24' W 134°12'   300 / 201014.7 11.9 12.3

Dump ship's entire track history